Time;durP1;ratioP1;P1;durP2;ratioP2;P2;SDS_P1;SDS_P2;PMS_P1;PMS_P2;Temp;Humidity;BMP_temperature;BMP_pressure;BME280_temperature;BME280_humidity;BME280_pressure;Samples;Min_cycle;Max_cycle;Signal;HPM_P1;HPM_P2
2022/09/28 00:01:20;;;;;;;9.27;3.70;;;9.60;90.70;;;;;;4925698;29;20075;-73
2022/09/28 00:03:48;;;;;;;8.57;3.25;;;9.60;90.60;;;;;;4925131;29;20138;-75
2022/09/28 00:06:17;;;;;;;9.68;3.88;;;9.60;90.60;;;;;;4915873;28;20043;-74
2022/09/28 00:08:43;;;;;;;7.75;3.08;;;9.50;90.60;;;;;;4906686;28;20035;-73
2022/09/28 00:11:12;;;;;;;6.38;3.20;;;9.50;90.50;;;;;;4919367;29;20038;-73
2022/09/28 00:13:39;;;;;;;10.20;3.97;;;9.50;90.50;;;;;;4920467;28;20071;-73
2022/09/28 00:16:07;;;;;;;8.07;3.60;;;9.50;90.50;;;;;;4922199;29;20131;-73
2022/09/28 00:18:34;;;;;;;9.70;3.15;;;9.40;90.50;;;;;;4929016;29;20115;-77
2022/09/28 00:21:01;;;;;;;8.02;3.22;;;9.30;90.50;;;;;;4921660;29;20047;-75
2022/09/28 00:23:26;;;;;;;9.98;4.10;;;9.30;90.50;;;;;;4922938;28;20039;-74
2022/09/28 00:25:52;;;;;;;8.43;3.70;;;9.30;90.50;;;;;;4912070;29;20044;-74
2022/09/28 00:28:18;;;;;;;10.55;4.45;;;9.30;90.50;;;;;;4920651;29;20045;-76
2022/09/28 00:30:43;;;;;;;10.45;4.05;;;9.30;90.70;;;;;;4922199;29;20118;-73
2022/09/28 00:33:09;;;;;;;8.80;4.25;;;9.30;90.70;;;;;;4919166;29;20063;-75
2022/09/28 00:35:35;;;;;;;9.88;4.60;;;9.30;90.70;;;;;;4919884;29;20051;-73
2022/09/28 00:38:02;;;;;;;9.98;4.53;;;9.20;90.70;;;;;;4922601;29;20055;-74
2022/09/28 00:40:28;;;;;;;9.50;4.70;;;9.30;90.80;;;;;;4920572;29;20411;-76
2022/09/28 00:42:54;;;;;;;9.82;4.95;;;9.30;90.80;;;;;;4921906;29;20090;-74
2022/09/28 00:45:23;;;;;;;10.45;5.50;;;9.30;90.90;;;;;;4923968;29;20460;-73
2022/09/28 00:47:55;;;;;;;11.40;5.28;;;9.40;90.80;;;;;;4917338;29;20726;-73
2022/09/28 00:50:34;;;;;;;9.63;5.07;;;9.40;90.90;;;;;;4916255;29;20032;-74
2022/09/28 00:53:22;;;;;;;11.65;5.57;;;9.50;90.80;;;;;;4938173;28;20325;-75
2022/09/28 00:55:54;;;;;;;11.38;6.00;;;9.50;90.70;;;;;;4923389;29;20058;-74
2022/09/28 00:58:28;;;;;;;10.98;6.05;;;9.60;90.80;;;;;;4927728;28;20115;-74
2022/09/28 01:00:55;;;;;;;13.52;6.35;;;9.60;90.60;;;;;;4908017;29;20040;-74
2022/09/28 01:03:21;;;;;;;12.05;7.07;;;9.70;90.50;;;;;;4897532;29;20337;-73
2022/09/28 01:05:48;;;;;;;13.70;7.95;;;9.60;90.30;;;;;;4923636;29;20503;-74
2022/09/28 01:08:15;;;;;;;11.50;7.05;;;9.60;90.00;;;;;;4915064;29;20032;-72
2022/09/28 01:10:42;;;;;;;13.00;7.55;;;9.60;90.00;;;;;;4909687;29;20480;-73
2022/09/28 01:13:08;;;;;;;16.50;8.43;;;9.60;90.00;;;;;;4926008;28;20431;-73
2022/09/28 01:15:42;;;;;;;12.55;7.85;;;9.70;89.90;;;;;;4922175;28;20040;-75
2022/09/28 01:18:27;;;;;;;11.98;7.68;;;9.70;89.90;;;;;;4923465;29;20059;-73
2022/09/28 01:21:02;;;;;;;13.45;7.85;;;9.70;89.80;;;;;;4906839;29;20420;-72
2022/09/28 01:23:31;;;;;;;;;;;9.70;89.90;;;;;;4922521;28;20176;-73
2022/09/28 01:26:24;;;;;;;12.95;8.52;;;9.60;89.90;;;;;;4927135;29;19974;-76
2022/09/28 01:28:58;;;;;;;11.45;8.32;;;9.70;90.10;;;;;;4920132;29;20036;-74
2022/09/28 01:31:28;;;;;;;11.35;7.18;;;9.60;90.20;;;;;;4922814;29;20037;-73
2022/09/28 01:33:59;;;;;;;17.50;7.65;;;9.60;90.30;;;;;;4918046;29;20040;-74
2022/09/28 01:36:42;;;;;;;14.05;7.53;;;9.60;90.30;;;;;;4902721;29;20452;-75
2022/09/28 01:39:09;;;;;;;14.25;8.60;;;9.60;90.40;;;;;;4920519;29;20040;-74
2022/09/28 01:41:39;;;;;;;12.05;7.55;;;9.60;90.40;;;;;;4921981;29;20034;-74
2022/09/28 01:44:09;;;;;;;10.80;6.72;;;9.60;90.40;;;;;;4925587;28;20084;-74
2022/09/28 01:46:44;;;;;;;11.70;7.20;;;9.60;90.60;;;;;;4934219;28;20043;-74
2022/09/28 01:49:21;;;;;;;;;;;9.60;90.70;;;;;;4925659;29;20102;-74
2022/09/28 01:52:12;;;;;;;11.45;7.18;;;9.60;90.80;;;;;;4931144;28;19919;-74
2022/09/28 01:54:42;;;;;;;10.77;6.95;;;9.60;90.90;;;;;;4907806;29;20028;-73
2022/09/28 01:57:21;;;;;;;12.13;6.97;;;9.60;91.00;;;;;;4917903;29;20035;-72
2022/09/28 02:00:14;;;;;;;12.20;7.05;;;9.60;91.00;;;;;;4920303;28;20052;-73
2022/09/28 02:02:52;;;;;;;11.52;6.75;;;9.60;91.00;;;;;;4920699;29;20034;-72
2022/09/28 02:05:28;;;;;;;12.55;7.03;;;9.50;91.00;;;;;;4920797;29;20471;-73
2022/09/28 02:08:10;;;;;;;12.43;7.05;;;9.40;91.10;;;;;;4920538;29;20043;-73
2022/09/28 02:10:44;;;;;;;13.40;7.63;;;9.40;91.20;;;;;;4917123;29;20118;-73
2022/09/28 02:13:15;;;;;;;10.37;7.53;;;9.30;91.20;;;;;;4925052;29;20054;-74
2022/09/28 02:15:47;;;;;;;15.48;8.00;;;9.20;91.20;;;;;;4928413;28;20091;-73
2022/09/28 02:18:13;;;;;;;12.82;8.43;;;9.20;91.30;;;;;;4905810;29;20113;-74
2022/09/28 02:20:43;;;;;;;11.95;8.15;;;9.20;91.30;;;;;;4926763;28;20475;-73
2022/09/28 02:23:09;;;;;;;11.25;7.22;;;9.10;91.40;;;;;;4918748;29;20036;-74
2022/09/28 02:25:48;;;;;;;12.95;8.38;;;9.10;91.50;;;;;;4929560;28;20071;-73
2022/09/28 02:28:14;;;;;;;12.00;7.35;;;9.00;91.50;;;;;;4921589;29;20039;-73
2022/09/28 02:30:44;;;;;;;12.00;6.63;;;9.00;91.60;;;;;;4920472;28;20032;-73
2022/09/28 02:33:15;;;;;;;12.38;7.53;;;9.00;91.60;;;;;;4917754;29;20035;-73
2022/09/28 02:35:41;;;;;;;10.68;7.10;;;9.00;91.50;;;;;;4925220;28;20055;-73
2022/09/28 02:38:10;;;;;;;11.13;7.55;;;9.00;91.50;;;;;;4918927;29;20043;-74
2022/09/28 02:40:36;;;;;;;11.75;7.43;;;9.10;91.40;;;;;;4921365;28;20032;-74
2022/09/28 02:43:22;;;;;;;13.50;7.85;;;9.10;91.30;;;;;;4919871;29;20115;-72
2022/09/28 02:46:30;;;;;;;10.32;8.05;;;9.10;91.20;;;;;;4921862;29;20176;-74
2022/09/28 02:49:06;;;;;;;10.52;7.07;;;9.10;91.30;;;;;;4912305;28;20507;-74
2022/09/28 02:52:03;;;;;;;12.15;8.57;;;9.10;91.40;;;;;;4918303;29;20066;-73
2022/09/28 02:54:56;;;;;;;11.50;7.93;;;9.20;91.50;;;;;;4916352;28;20380;-76
2022/09/28 02:57:44;;;;;;;11.70;8.32;;;9.20;91.40;;;;;;4916500;29;20040;-75
2022/09/28 03:00:13;;;;;;;14.77;8.75;;;9.20;91.50;;;;;;4919241;29;20036;-75
2022/09/28 03:03:12;;;;;;;13.43;7.88;;;9.10;91.50;;;;;;4918212;29;20055;-74
2022/09/28 03:06:00;;;;;;;10.75;7.60;;;9.00;91.60;;;;;;4921371;29;20122;-74
2022/09/28 03:08:38;;;;;;;11.50;7.50;;;9.00;91.80;;;;;;4918648;28;20095;-75
2022/09/28 03:11:19;;;;;;;12.35;7.50;;;8.90;91.90;;;;;;4913242;29;20047;-74
2022/09/28 03:13:45;;;;;;;15.45;9.05;;;8.80;92.00;;;;;;4922994;29;20044;-75
2022/09/28 03:16:13;;;;;;;13.45;9.27;;;8.80;92.10;;;;;;4927945;29;20103;-72
2022/09/28 03:18:40;;;;;;;12.90;9.02;;;8.80;92.30;;;;;;4919969;29;20047;-73
2022/09/28 03:21:06;;;;;;;12.98;8.63;;;8.70;92.30;;;;;;4905410;29;20047;-74
2022/09/28 03:23:32;;;;;;;15.73;10.25;;;8.70;92.30;;;;;;4921476;28;20467;-74
2022/09/28 03:25:57;;;;;;;13.00;8.93;;;8.60;92.30;;;;;;4923770;29;20048;-74
2022/09/28 03:28:23;;;;;;;13.57;9.13;;;8.60;92.40;;;;;;4920866;28;20051;-75
2022/09/28 03:30:49;;;;;;;13.45;9.30;;;8.60;92.50;;;;;;4928264;29;20051;-75
2022/09/28 03:33:14;;;;;;;12.27;8.32;;;8.60;92.50;;;;;;4916414;29;20107;-75
2022/09/28 03:35:41;;;;;;;16.20;9.80;;;8.50;92.50;;;;;;4918478;29;20287;-74
2022/09/28 03:38:06;;;;;;;15.07;8.70;;;8.40;92.50;;;;;;4917352;29;20117;-75
2022/09/28 03:40:32;;;;;;;12.88;9.32;;;8.40;92.50;;;;;;4923186;28;20043;-73
2022/09/28 03:42:59;;;;;;;13.88;9.93;;;8.30;92.60;;;;;;4921795;29;20491;-75
2022/09/28 03:45:25;;;;;;;12.93;9.25;;;8.30;92.60;;;;;;4915698;28;21359;-77
2022/09/28 03:47:50;;;;;;;13.45;9.27;;;8.30;92.60;;;;;;4918188;29;20481;-75
2022/09/28 03:50:16;;;;;;;11.60;8.65;;;8.30;92.70;;;;;;4921768;28;20031;-76
2022/09/28 03:52:42;;;;;;;11.30;9.02;;;8.20;92.70;;;;;;4929157;29;20098;-74
2022/09/28 03:55:08;;;;;;;15.35;9.77;;;8.20;92.60;;;;;;4919917;28;20038;-74
2022/09/28 03:57:34;;;;;;;13.05;9.43;;;8.10;92.60;;;;;;4903441;29;20048;-75
2022/09/28 04:00:00;;;;;;;14.35;9.95;;;8.10;92.60;;;;;;4907296;28;20089;-73
2022/09/28 04:02:25;;;;;;;12.60;9.23;;;8.10;92.50;;;;;;4921041;29;20032;-74
2022/09/28 04:04:51;;;;;;;12.82;8.80;;;8.10;92.60;;;;;;4919283;28;20167;-73
2022/09/28 04:07:16;;;;;;;10.68;8.35;;;8.10;92.60;;;;;;4918488;29;20059;-76
2022/09/28 04:09:42;;;;;;;11.98;8.30;;;8.10;92.60;;;;;;4922073;28;20044;-74
2022/09/28 04:12:08;;;;;;;12.50;8.52;;;8.10;92.70;;;;;;4929134;28;20682;-76
2022/09/28 04:14:33;;;;;;;12.57;8.25;;;8.00;92.70;;;;;;4920980;28;20031;-74
2022/09/28 04:16:59;;;;;;;15.50;9.35;;;8.00;92.80;;;;;;4920317;29;20067;-73
2022/09/28 04:19:25;;;;;;;13.63;8.80;;;8.00;92.90;;;;;;4918792;29;20516;-74
2022/09/28 04:21:51;;;;;;;12.85;8.65;;;8.00;92.80;;;;;;4924625;29;20035;-73
2022/09/28 04:24:19;;;;;;;13.07;8.23;;;8.00;92.80;;;;;;4917643;28;20361;-76
2022/09/28 04:26:44;;;;;;;12.77;8.90;;;7.90;92.80;;;;;;4917813;29;20052;-75
2022/09/28 04:29:16;;;;;;;12.95;9.13;;;7.90;92.80;;;;;;4917529;28;20036;-74
2022/09/28 04:31:48;;;;;;;15.63;10.93;;;7.90;92.90;;;;;;4917665;29;20053;-72
2022/09/28 04:34:21;;;;;;;13.68;11.32;;;7.90;92.90;;;;;;4917074;28;20031;-72
2022/09/28 04:36:47;;;;;;;21.30;10.63;;;7.80;92.90;;;;;;4918440;29;20091;-73
2022/09/28 04:39:15;;;;;;;20.05;10.77;;;7.90;93.10;;;;;;4904162;28;20024;-75
2022/09/28 04:41:41;;;;;;;16.40;10.20;;;8.00;93.20;;;;;;4914305;29;20037;-77
2022/09/28 04:44:08;;;;;;;14.82;10.52;;;8.00;93.20;;;;;;4915735;28;20369;-75
2022/09/28 04:46:34;;;;;;;15.27;9.80;;;8.10;93.20;;;;;;4917331;29;20040;-75
2022/09/28 04:49:00;;;;;;;12.73;9.88;;;8.10;93.20;;;;;;4921198;28;20113;-73
2022/09/28 04:51:26;;;;;;;14.55;9.73;;;8.10;93.20;;;;;;4905409;29;20713;-74
2022/09/28 04:53:51;;;;;;;14.88;10.60;;;8.20;93.20;;;;;;4922671;28;20035;-73
2022/09/28 04:56:18;;;;;;;16.17;10.32;;;8.20;93.20;;;;;;4919348;29;20542;-76
2022/09/28 04:58:44;;;;;;;16.92;10.02;;;8.30;93.20;;;;;;4921369;28;20192;-74
2022/09/28 05:01:15;;;;;;;13.10;9.70;;;8.20;93.10;;;;;;4935174;28;20968;-74
2022/09/28 05:03:41;;;;;;;15.05;10.30;;;8.30;93.10;;;;;;4911720;28;20040;-73
2022/09/28 05:06:07;;;;;;;14.80;10.35;;;8.30;93.10;;;;;;4924525;29;20173;-73
2022/09/28 05:08:34;;;;;;;14.43;9.32;;;8.30;93.10;;;;;;4916052;28;20476;-77
2022/09/28 05:11:11;;;;;;;15.27;10.20;;;8.30;93.10;;;;;;4925903;29;20036;-74
2022/09/28 05:13:44;;;;;;;17.30;11.88;;;8.30;93.20;;;;;;4923604;28;20052;-72
2022/09/28 05:16:11;;;;;;;16.75;10.95;;;8.30;93.20;;;;;;4922620;29;20028;-73
2022/09/28 05:18:37;;;;;;;17.42;12.23;;;8.40;93.30;;;;;;4920234;28;20454;-73
2022/09/28 05:21:07;;;;;;;19.90;11.50;;;8.40;93.30;;;;;;4919981;29;20034;-74
2022/09/28 05:23:33;;;;;;;18.10;11.70;;;8.40;93.30;;;;;;4914732;29;20100;-74
2022/09/28 05:26:00;;;;;;;18.00;10.88;;;8.40;93.30;;;;;;4922393;29;20392;-75
2022/09/28 05:28:28;;;;;;;18.92;12.32;;;8.40;93.30;;;;;;4923492;29;20448;-73
2022/09/28 05:31:01;;;;;;;20.42;12.60;;;8.40;93.20;;;;;;4923988;29;20614;-74
2022/09/28 05:33:28;;;;;;;17.10;11.38;;;8.40;93.20;;;;;;4922946;28;20064;-74
2022/09/28 05:35:54;;;;;;;15.45;11.00;;;8.40;93.20;;;;;;4921313;29;20039;-74
2022/09/28 05:38:19;;;;;;;17.10;11.00;;;8.30;93.10;;;;;;4931845;28;20052;-73
2022/09/28 05:40:45;;;;;;;15.30;11.43;;;8.20;93.10;;;;;;4918631;29;20043;-73
2022/09/28 05:43:10;;;;;;;17.90;10.95;;;8.20;93.20;;;;;;4922674;29;20032;-74
2022/09/28 05:45:36;;;;;;;16.88;11.50;;;8.30;93.30;;;;;;4915524;29;20131;-73
2022/09/28 05:48:02;;;;;;;15.95;10.82;;;8.30;93.40;;;;;;4923058;29;20036;-78
2022/09/28 05:50:28;;;;;;;20.58;12.43;;;8.30;93.30;;;;;;4921817;28;20032;-79
2022/09/28 05:52:58;;;;;;;17.90;11.55;;;8.30;93.20;;;;;;4918090;29;20262;-78
2022/09/28 05:55:24;;;;;;;17.75;12.00;;;8.20;93.20;;;;;;4916766;28;20087;-80
2022/09/28 05:57:49;;;;;;;18.23;11.10;;;8.20;93.20;;;;;;4925630;29;20048;-79
2022/09/28 06:00:15;;;;;;;18.85;11.02;;;8.20;93.20;;;;;;4913915;29;20039;-80
2022/09/28 06:02:40;;;;;;;20.70;12.18;;;8.20;93.20;;;;;;4899344;29;20034;-80
2022/09/28 06:05:06;;;;;;;19.75;11.35;;;8.10;93.20;;;;;;4905153;29;20119;-80
2022/09/28 06:07:32;;;;;;;14.13;10.15;;;8.20;93.30;;;;;;4918803;29;20420;-79
2022/09/28 06:09:58;;;;;;;18.00;11.13;;;8.10;93.30;;;;;;4929812;28;20024;-80
2022/09/28 06:12:24;;;;;;;14.40;9.43;;;8.10;93.30;;;;;;4925797;29;20040;-79
2022/09/28 06:14:50;;;;;;;18.60;11.45;;;8.10;93.40;;;;;;4924376;29;20527;-81
2022/09/28 06:17:15;;;;;;;20.65;11.65;;;8.10;93.40;;;;;;4932432;28;20115;-80
2022/09/28 06:19:41;;;;;;;19.83;11.32;;;8.20;93.50;;;;;;4923704;29;20642;-79
2022/09/28 06:22:07;;;;;;;15.73;9.98;;;8.40;93.60;;;;;;4911344;29;20031;-80
2022/09/28 06:24:33;;;;;;;16.77;9.52;;;8.50;93.50;;;;;;4932697;29;20027;-80
2022/09/28 06:26:58;;;;;;;16.50;8.95;;;8.80;93.30;;;;;;4911249;29;20032;-78
2022/09/28 06:29:24;;;;;;;15.88;8.60;;;9.00;92.80;;;;;;4923338;29;20054;-81
2022/09/28 06:31:50;;;;;;;16.25;7.45;;;9.50;92.30;;;;;;4905263;29;20091;-78
2022/09/28 06:34:16;;;;;;;14.18;8.27;;;9.80;91.20;;;;;;4922172;29;20495;-78
2022/09/28 06:36:41;;;;;;;14.30;7.10;;;9.90;89.40;;;;;;4923849;29;20040;-80
2022/09/28 06:39:07;;;;;;;11.93;6.88;;;9.80;88.60;;;;;;4924319;28;20040;-79
2022/09/28 06:41:33;;;;;;;14.20;7.18;;;9.60;88.60;;;;;;4926238;29;20605;-79
2022/09/28 06:43:58;;;;;;;12.35;7.88;;;9.40;88.70;;;;;;4919484;29;20063;-80
2022/09/28 06:46:24;;;;;;;12.38;7.20;;;9.30;89.40;;;;;;4926749;29;20419;-79
2022/09/28 06:48:50;;;;;;;14.10;7.50;;;9.10;89.80;;;;;;4909651;29;20079;-79
2022/09/28 06:51:15;;;;;;;19.17;9.23;;;9.10;90.10;;;;;;4920488;29;20110;-79
2022/09/28 06:53:41;;;;;;;13.43;9.43;;;9.10;90.40;;;;;;4921199;28;20142;-79
2022/09/28 06:56:10;;;;;;;16.63;9.98;;;9.10;90.60;;;;;;4924307;29;20036;-79
2022/09/28 06:58:36;;;;;;;16.55;9.60;;;9.10;90.80;;;;;;4926700;29;20110;-79
2022/09/28 07:01:02;;;;;;;18.23;10.60;;;9.10;90.90;;;;;;4924179;29;20212;-79
2022/09/28 07:03:28;;;;;;;12.60;8.65;;;9.10;91.00;;;;;;4922378;29;20536;-79
2022/09/28 07:05:55;;;;;;;18.42;10.75;;;9.20;91.30;;;;;;4924311;29;20167;-79
2022/09/28 07:08:24;;;;;;;16.45;9.38;;;9.30;91.40;;;;;;4922662;29;20502;-80
2022/09/28 07:10:55;;;;;;;17.10;11.05;;;9.40;91.60;;;;;;4924692;29;20035;-80
2022/09/28 07:13:22;;;;;;;18.77;12.40;;;9.60;91.60;;;;;;4927391;28;20048;-79
2022/09/28 07:15:48;;;;;;;17.67;10.68;;;9.60;91.50;;;;;;4923504;28;20028;-78
2022/09/28 07:18:14;;;;;;;16.73;11.05;;;9.70;91.50;;;;;;4898927;29;20044;-79
2022/09/28 07:20:39;;;;;;;13.07;9.93;;;9.80;91.40;;;;;;4919549;29;20448;-78
2022/09/28 07:23:09;;;;;;;17.20;10.80;;;10.10;91.40;;;;;;4921367;29;20542;-80
2022/09/28 07:25:37;;;;;;;16.52;11.45;;;10.10;91.00;;;;;;4920985;29;20083;-80
2022/09/28 07:28:03;;;;;;;19.33;11.63;;;10.20;90.70;;;;;;4923146;29;20047;-80
2022/09/28 07:30:33;;;;;;;22.35;11.35;;;10.30;90.60;;;;;;4920859;29;20039;-80
2022/09/28 07:32:59;;;;;;;16.35;10.18;;;10.40;90.50;;;;;;4919400;29;20047;-82
2022/09/28 07:35:27;;;;;;;18.33;10.48;;;10.50;90.20;;;;;;4919342;29;20039;-81
2022/09/28 07:38:06;;;;;;;17.17;11.10;;;10.50;89.80;;;;;;4919085;29;20383;-84
2022/09/28 07:43:19;;;;;;;17.58;10.93;;;10.60;89.50;;;;;;4920758;29;20469;-80
2022/09/28 07:45:51;;;;;;;18.17;11.50;;;10.60;89.20;;;;;;4918091;29;20040;-80
2022/09/28 07:48:17;;;;;;;18.17;10.45;;;10.60;88.90;;;;;;4916961;29;20028;-80
2022/09/28 07:50:56;;;;;;;17.13;9.93;;;10.60;89.00;;;;;;4910670;29;20261;-80
2022/09/28 07:53:23;;;;;;;19.70;10.88;;;10.70;89.00;;;;;;4921645;29;20043;-80
2022/09/28 07:56:17;;;;;;;17.30;10.63;;;10.70;88.80;;;;;;4921863;29;20134;-77
2022/09/28 07:58:42;;;;;;;16.23;10.43;;;10.80;88.70;;;;;;4920742;28;20506;-82
2022/09/28 08:01:10;;;;;;;20.13;10.48;;;10.90;89.10;;;;;;4918850;28;20040;-78
2022/09/28 08:03:37;;;;;;;18.08;9.95;;;11.00;88.70;;;;;;4917325;29;20126;-79
2022/09/28 08:06:09;;;;;;;17.67;10.02;;;11.10;88.90;;;;;;4904912;29;21061;-82
2022/09/28 08:08:35;;;;;;;20.10;10.68;;;11.10;88.40;;;;;;4915228;29;20483;-81
2022/09/28 08:11:02;;;;;;;20.83;10.98;;;11.10;88.30;;;;;;4923928;29;20344;-81
2022/09/28 08:13:29;;;;;;;19.33;11.07;;;11.10;88.40;;;;;;4928340;29;20297;-81
2022/09/28 08:16:00;;;;;;;22.13;13.30;;;11.10;88.50;;;;;;4914809;29;20560;-83
2022/09/28 08:18:26;;;;;;;27.02;20.15;;;11.10;88.50;;;;;;4933609;29;20147;-79
2022/09/28 08:23:37;;;;;;;18.73;10.90;;;11.40;88.20;;;;;;4918469;28;20031;-82
2022/09/28 08:26:03;;;;;;;18.65;9.82;;;11.30;87.60;;;;;;4917876;29;20384;-80
2022/09/28 08:28:29;;;;;;;17.67;10.52;;;11.50;87.50;;;;;;4922160;29;20123;-83
2022/09/28 08:30:57;;;;;;;15.80;9.75;;;11.50;87.50;;;;;;4916695;29;20539;-81
2022/09/28 08:33:23;;;;;;;13.40;9.23;;;11.50;87.70;;;;;;4914817;29;20437;-83
2022/09/28 08:36:00;;;;;;;15.40;9.18;;;11.60;87.70;;;;;;4927213;29;20118;-83
2022/09/28 08:38:27;;;;;;;14.18;9.88;;;11.80;87.60;;;;;;4923614;28;20043;-84
2022/09/28 08:41:17;;;;;;;19.10;9.82;;;12.00;87.70;;;;;;4922357;29;20564;-82
2022/09/28 08:43:55;;;;;;;15.27;9.23;;;12.10;86.20;;;;;;4929421;28;20038;-79
2022/09/28 08:46:24;;;;;;;14.10;8.73;;;12.20;86.10;;;;;;4918578;29;20036;-79
2022/09/28 08:49:02;;;;;;;13.85;8.82;;;12.50;86.10;;;;;;4913993;28;20031;-79
2022/09/28 08:51:34;;;;;;;16.17;8.68;;;12.70;85.40;;;;;;4912606;29;20035;-80
2022/09/28 08:54:08;;;;;;;12.45;7.55;;;13.00;84.30;;;;;;4915740;29;20044;-79
2022/09/28 08:56:47;;;;;;;13.77;7.55;;;13.30;82.80;;;;;;4916371;29;20052;-79
2022/09/28 08:59:19;;;;;;;12.70;7.32;;;13.30;81.50;;;;;;4924373;28;20027;-80
2022/09/28 09:01:57;;;;;;;15.35;6.88;;;13.40;81.90;;;;;;4918597;29;20052;-79
2022/09/28 09:04:23;;;;;;;15.60;7.43;;;13.40;81.10;;;;;;4916924;28;20475;-79
2022/09/28 09:06:59;;;;;;;15.30;6.65;;;13.50;80.70;;;;;;4915881;29;20043;-79
2022/09/28 09:09:31;;;;;;;10.30;6.28;;;13.70;79.90;;;;;;4915945;28;20043;-78
2022/09/28 09:12:07;;;;;;;8.50;4.13;;;13.90;79.10;;;;;;4927467;28;20043;-79
2022/09/28 09:14:38;;;;;;;14.10;4.57;;;13.90;78.10;;;;;;4918342;28;20063;-79
2022/09/28 09:17:13;;;;;;;13.48;6.72;;;14.10;77.00;;;;;;4917859;29;20075;-81
2022/09/28 09:19:45;;;;;;;13.25;5.72;;;14.40;77.00;;;;;;4912633;29;20040;-80
2022/09/28 09:22:41;;;;;;;10.38;6.13;;;14.40;76.60;;;;;;4910161;29;20028;-78
2022/09/28 09:25:27;;;;;;;10.63;5.05;;;14.60;76.10;;;;;;4906671;29;20556;-82
2022/09/28 09:28:01;;;;;;;7.25;4.00;;;14.70;75.80;;;;;;4918735;29;20399;-76
2022/09/28 09:30:36;;;;;;;6.85;3.10;;;14.70;74.60;;;;;;4904297;29;20142;-78
2022/09/28 09:33:26;;;;;;;9.63;3.78;;;14.40;75.10;;;;;;4900964;29;20126;-79
2022/09/28 09:36:05;;;;;;;7.95;3.35;;;14.50;75.30;;;;;;4916205;29;20087;-85
2022/09/28 09:38:47;;;;;;;6.15;2.63;;;14.50;76.20;;;;;;4925266;28;20058;-76
2022/09/28 09:41:53;;;;;;;12.52;3.10;;;14.70;74.50;;;;;;4948319;29;20282;-77
2022/09/28 09:44:29;;;;;;;8.15;2.83;;;14.60;73.90;;;;;;4923061;28;20530;-82
2022/09/28 09:47:06;;;;;;;8.25;2.50;;;14.50;74.00;;;;;;4918977;29;20143;-82
2022/09/28 09:49:57;;;;;;;6.13;2.25;;;14.50;72.80;;;;;;4936568;28;20048;-82
2022/09/28 09:52:31;;;;;;;7.28;2.28;;;14.90;73.70;;;;;;4920561;29;20123;-82
2022/09/28 09:55:02;;;;;;;5.47;1.80;;;15.50;72.70;;;;;;4902636;29;20464;-83
2022/09/28 09:57:50;;;;;;;5.90;1.73;;;15.50;70.60;;;;;;4925702;29;20264;-81
2022/09/28 10:00:16;;;;;;;3.60;1.55;;;14.80;68.90;;;;;;4918600;28;20110;-79
2022/09/28 10:02:46;;;;;;;5.07;1.58;;;14.40;69.20;;;;;;4926507;29;20530;-80
2022/09/28 10:05:11;;;;;;;4.78;1.55;;;14.10;69.50;;;;;;4926218;28;20503;-81
2022/09/28 10:07:58;;;;;;;4.30;1.45;;;13.80;71.60;;;;;;4902670;29;20044;-82
2022/09/28 10:10:34;;;;;;;4.10;1.45;;;13.50;70.80;;;;;;4920036;28;20036;-81
2022/09/28 10:13:00;;;;;;;4.93;1.52;;;13.20;71.50;;;;;;4921829;29;20111;-81
2022/09/28 10:15:28;;;;;;;6.45;1.40;;;13.50;71.00;;;;;;4926142;28;20044;-79
2022/09/28 10:17:56;;;;;;;5.45;1.50;;;13.80;70.60;;;;;;4934628;28;20051;-82
2022/09/28 10:20:24;;;;;;;4.07;1.30;;;14.20;70.60;;;;;;4921236;28;20404;-83
2022/09/28 10:22:56;;;;;;;4.20;1.45;;;14.60;69.90;;;;;;4931613;28;20044;-81
2022/09/28 10:25:22;;;;;;;5.68;1.50;;;14.70;69.40;;;;;;4901841;28;20055;-77
2022/09/28 10:27:51;;;;;;;6.03;1.67;;;14.80;66.00;;;;;;4915769;29;20114;-82
2022/09/28 10:30:19;;;;;;;6.55;1.58;;;15.10;65.80;;;;;;4897656;29;20122;-76
2022/09/28 10:32:47;;;;;;;6.00;1.80;;;15.20;66.30;;;;;;4918029;29;20539;-79
2022/09/28 10:35:22;;;;;;;6.70;1.75;;;15.20;66.50;;;;;;4915506;28;20110;-77
2022/09/28 10:38:05;;;;;;;4.28;1.45;;;15.30;65.80;;;;;;4913733;28;20127;-76
2022/09/28 10:40:37;;;;;;;4.70;1.42;;;15.60;65.30;;;;;;4915168;29;20490;-76
2022/09/28 10:43:14;;;;;;;2.78;1.30;;;15.40;62.50;;;;;;4917518;29;20032;-76
2022/09/28 10:45:41;;;;;;;4.45;1.27;;;15.60;63.00;;;;;;4914726;29;20455;-76
2022/09/28 10:48:19;;;;;;;4.15;1.25;;;15.70;61.50;;;;;;4913200;29;20083;-77
2022/09/28 10:51:03;;;;;;;4.18;1.48;;;15.50;60.30;;;;;;4914142;29;20036;-82
2022/09/28 10:53:29;;;;;;;3.13;1.35;;;15.30;63.00;;;;;;4906381;28;20028;-82
2022/09/28 10:56:04;;;;;;;4.38;1.38;;;15.10;63.20;;;;;;4918001;29;20028;-79
2022/09/28 10:58:38;;;;;;;4.40;1.10;;;15.10;63.20;;;;;;4899660;28;20048;-85
2022/09/28 11:01:19;;;;;;;2.53;1.40;;;15.10;65.60;;;;;;4920557;29;20023;-76
2022/09/28 11:04:03;;;;;;;5.18;1.30;;;15.30;64.50;;;;;;4945520;29;20023;-77
2022/09/28 11:06:36;;;;;;;5.47;1.30;;;15.60;63.70;;;;;;4919518;29;20071;-81
2022/09/28 11:09:23;;;;;;;3.45;1.30;;;15.50;60.30;;;;;;4915112;29;20048;-83
2022/09/28 11:11:49;;;;;;;5.85;1.40;;;15.30;61.60;;;;;;4915979;29;20040;-80
2022/09/28 11:14:37;;;;;;;5.15;1.27;;;15.20;61.60;;;;;;4916306;28;20475;-80
2022/09/28 11:17:22;;;;;;;3.65;1.38;;;15.00;63.90;;;;;;4915989;29;20071;-80
2022/09/28 11:19:48;;;;;;;2.33;0.90;;;14.90;62.50;;;;;;4917086;28;20169;-80
2022/09/28 11:22:20;;;;;;;3.38;1.33;;;14.80;63.10;;;;;;4914161;29;20044;-81
2022/09/28 11:24:47;;;;;;;6.55;2.47;;;15.10;64.70;;;;;;4915419;29;20039;-83
2022/09/28 11:27:24;;;;;;;2.50;1.05;;;15.40;64.60;;;;;;4913295;29;20484;-82
2022/09/28 11:29:59;;;;;;;4.68;1.40;;;15.10;66.00;;;;;;4914221;29;20047;-82
2022/09/28 11:32:29;;;;;;;5.40;1.48;;;14.90;66.90;;;;;;4914252;29;21723;-83
2022/09/28 11:34:58;;;;;;;5.05;1.63;;;14.80;68.00;;;;;;4912486;29;20047;-83
2022/09/28 11:37:40;;;;;;;6.05;1.85;;;14.60;69.10;;;;;;4915123;29;21166;-83
2022/09/28 11:40:12;;;;;;;8.18;1.73;;;14.60;69.00;;;;;;4912242;29;20044;-82
2022/09/28 11:42:49;;;;;;;5.25;1.88;;;14.50;70.50;;;;;;4913919;29;20445;-82
2022/09/28 11:45:29;;;;;;;7.18;2.00;;;14.70;70.20;;;;;;4912833;28;20036;-82
2022/09/28 11:48:06;;;;;;;7.45;1.90;;;14.70;70.70;;;;;;4909584;29;20555;-81
2022/09/28 11:51:01;;;;;;;7.20;2.10;;;14.70;69.70;;;;;;4913054;28;20095;-81
2022/09/28 11:53:41;;;;;;;4.70;1.13;;;14.80;69.50;;;;;;4919211;28;20027;-76
2022/09/28 11:56:28;;;;;;;3.50;1.30;;;14.70;65.50;;;;;;4914171;29;20031;-78
2022/09/28 11:59:16;;;;;;;3.22;1.23;;;14.60;66.60;;;;;;4920911;28;20051;-78
2022/09/28 12:01:51;;;;;;;3.47;1.15;;;14.20;68.50;;;;;;4921267;29;20032;-78
2022/09/28 12:04:38;;;;;;;;;;;14.20;70.60;;;;;;4922504;28;20483;-78
2022/09/28 12:07:11;;;;;;;4.55;1.20;;;14.20;70.70;;;;;;4918093;29;20430;-78
2022/09/28 12:10:01;;;;;;;2.60;1.30;;;14.30;71.30;;;;;;4918980;28;20894;-78
2022/09/28 12:12:44;;;;;;;4.75;1.42;;;14.60;71.80;;;;;;4921614;28;20044;-79
2022/09/28 12:15:15;;;;;;;5.10;1.42;;;15.10;70.00;;;;;;4918787;29;20039;-80
2022/09/28 12:17:47;;;;;;;5.40;1.58;;;15.40;67.80;;;;;;4918895;29;20306;-80
2022/09/28 12:20:45;;;;;;;5.22;1.77;;;15.60;68.40;;;;;;4915800;28;20031;-80
2022/09/28 12:23:35;;;;;;;7.00;2.33;;;15.60;68.80;;;;;;4920925;29;20047;-79
2022/09/28 12:26:08;;;;;;;6.55;2.03;;;15.00;68.60;;;;;;4924682;29;20056;-77
2022/09/28 12:28:55;;;;;;;7.00;1.92;;;15.00;68.70;;;;;;4919524;28;20119;-79
2022/09/28 12:31:50;;;;;;;7.03;1.90;;;15.00;68.70;;;;;;4918836;29;20082;-79
2022/09/28 12:34:16;;;;;;;4.50;1.67;;;14.90;68.70;;;;;;4914206;29;20308;-78
2022/09/28 12:37:13;;;;;;;5.15;1.60;;;15.00;68.70;;;;;;4927194;29;20056;-78
2022/09/28 12:39:53;;;;;;;4.18;1.80;;;14.90;68.00;;;;;;4909078;29;20023;-76
2022/09/28 12:42:56;;;;;;;4.60;2.00;;;14.90;67.80;;;;;;4936060;29;20039;-76
2022/09/28 12:45:42;;;;;;;6.25;1.73;;;14.80;67.30;;;;;;4912277;29;20046;-77
2022/09/28 12:48:50;;;;;;;5.32;1.73;;;14.70;67.70;;;;;;4912989;29;20070;-80
2022/09/28 12:51:40;;;;;;;4.88;2.03;;;14.70;66.90;;;;;;4870984;29;20040;-82
2022/09/28 12:54:24;;;;;;;5.13;1.70;;;14.40;68.00;;;;;;4917424;28;20251;-84
2022/09/28 12:57:01;;;;;;;4.27;1.63;;;14.20;68.10;;;;;;4918258;29;20102;-78
2022/09/28 12:59:46;;;;;;;6.15;1.70;;;14.40;68.10;;;;;;4918801;29;20567;-80
2022/09/28 13:02:32;;;;;;;5.32;1.30;;;15.00;67.90;;;;;;4912345;29;20147;-78
2022/09/28 13:05:35;;;;;;;5.07;1.65;;;15.30;66.20;;;;;;4902955;29;20048;-78
2022/09/28 13:08:15;;;;;;;3.53;1.38;;;15.50;65.30;;;;;;4892592;29;20059;-78
2022/09/28 13:11:08;;;;;;;5.07;1.50;;;15.60;64.40;;;;;;4930254;28;20427;-77
2022/09/28 13:14:04;;;;;;;4.05;1.40;;;15.30;64.70;;;;;;4915202;29;20598;-79
2022/09/28 13:16:47;;;;;;;4.20;1.80;;;15.10;64.90;;;;;;4919713;29;20479;-78
2022/09/28 13:19:15;;;;;;;4.35;1.70;;;15.30;65.50;;;;;;4925068;29;20038;-81